sensor_id;sensor_type;location;lat;lon;timestamp;P1;durP1;ratioP1;P2;durP2;ratioP2
12110;SDS011;6119;52.372;8.990;2023-07-20T00:01:36;0.83;;;0.83;;
12110;SDS011;6119;52.372;8.990;2023-07-20T00:04:23;2.00;;;1.03;;
12110;SDS011;6119;52.372;8.990;2023-07-20T00:07:10;0.90;;;0.90;;
12110;SDS011;6119;52.372;8.990;2023-07-20T00:09:56;2.87;;;0.90;;
12110;SDS011;6119;52.372;8.990;2023-07-20T00:12:43;1.20;;;1.00;;
12110;SDS011;6119;52.372;8.990;2023-07-20T00:15:32;3.57;;;1.20;;
12110;SDS011;6119;52.372;8.990;2023-07-20T00:18:20;1.20;;;1.10;;
12110;SDS011;6119;52.372;8.990;2023-07-20T00:21:07;1.00;;;1.00;;
12110;SDS011;6119;52.372;8.990;2023-07-20T00:23:54;1.10;;;1.00;;
12110;SDS011;6119;52.372;8.990;2023-07-20T00:26:40;2.03;;;1.20;;
12110;SDS011;6119;52.372;8.990;2023-07-20T00:29:27;1.77;;;1.00;;
12110;SDS011;6119;52.372;8.990;2023-07-20T00:32:13;1.50;;;1.13;;
12110;SDS011;6119;52.372;8.990;2023-07-20T00:35:02;1.50;;;0.90;;
12110;SDS011;6119;52.372;8.990;2023-07-20T00:37:49;1.20;;;1.10;;
12110;SDS011;6119;52.372;8.990;2023-07-20T00:40:35;1.53;;;1.10;;
12110;SDS011;6119;52.372;8.990;2023-07-20T00:43:22;1.73;;;1.30;;
12110;SDS011;6119;52.372;8.990;2023-07-20T00:46:09;1.30;;;1.20;;
12110;SDS011;6119;52.372;8.990;2023-07-20T00:48:56;1.17;;;1.10;;
12110;SDS011;6119;52.372;8.990;2023-07-20T00:51:44;2.27;;;1.20;;
12110;SDS011;6119;52.372;8.990;2023-07-20T00:54:31;1.47;;;1.30;;
12110;SDS011;6119;52.372;8.990;2023-07-20T00:57:17;2.30;;;1.20;;
12110;SDS011;6119;52.372;8.990;2023-07-20T01:00:06;1.60;;;1.07;;
12110;SDS011;6119;52.372;8.990;2023-07-20T01:02:53;6.50;;;1.97;;
12110;SDS011;6119;52.372;8.990;2023-07-20T01:05:41;1.07;;;1.07;;
12110;SDS011;6119;52.372;8.990;2023-07-20T01:08:45;1.40;;;1.30;;
12110;SDS011;6119;52.372;8.990;2023-07-20T01:11:38;1.47;;;1.33;;
12110;SDS011;6119;52.372;8.990;2023-07-20T01:14:30;1.37;;;1.27;;
12110;SDS011;6119;52.372;8.990;2023-07-20T01:17:17;2.23;;;1.20;;
12110;SDS011;6119;52.372;8.990;2023-07-20T01:20:04;3.60;;;1.30;;
12110;SDS011;6119;52.372;8.990;2023-07-20T01:26:34;1.40;;;1.30;;
12110;SDS011;6119;52.372;8.990;2023-07-20T01:29:41;1.27;;;1.17;;
12110;SDS011;6119;52.372;8.990;2023-07-20T01:32:43;1.50;;;1.20;;
12110;SDS011;6119;52.372;8.990;2023-07-20T01:35:33;1.00;;;1.00;;
12110;SDS011;6119;52.372;8.990;2023-07-20T01:38:22;3.13;;;1.20;;
12110;SDS011;6119;52.372;8.990;2023-07-20T01:41:10;3.03;;;1.10;;
12110;SDS011;6119;52.372;8.990;2023-07-20T01:43:57;1.23;;;1.10;;
12110;SDS011;6119;52.372;8.990;2023-07-20T01:46:45;0.97;;;0.97;;
12110;SDS011;6119;52.372;8.990;2023-07-20T01:49:33;1.43;;;1.33;;
12110;SDS011;6119;52.372;8.990;2023-07-20T01:52:20;1.40;;;1.30;;
12110;SDS011;6119;52.372;8.990;2023-07-20T01:55:06;1.50;;;1.40;;
12110;SDS011;6119;52.372;8.990;2023-07-20T01:57:54;1.93;;;1.27;;
12110;SDS011;6119;52.372;8.990;2023-07-20T02:00:41;1.67;;;1.57;;
12110;SDS011;6119;52.372;8.990;2023-07-20T02:03:27;2.00;;;1.60;;
12110;SDS011;6119;52.372;8.990;2023-07-20T02:06:15;2.20;;;1.43;;
12110;SDS011;6119;52.372;8.990;2023-07-20T02:09:02;1.67;;;1.50;;
12110;SDS011;6119;52.372;8.990;2023-07-20T02:11:49;1.60;;;1.50;;
12110;SDS011;6119;52.372;8.990;2023-07-20T02:14:36;2.23;;;1.50;;
12110;SDS011;6119;52.372;8.990;2023-07-20T02:17:23;3.47;;;1.40;;
12110;SDS011;6119;52.372;8.990;2023-07-20T02:20:10;1.53;;;1.43;;
12110;SDS011;6119;52.372;8.990;2023-07-20T02:22:58;2.27;;;1.37;;
12110;SDS011;6119;52.372;8.990;2023-07-20T02:25:45;1.40;;;1.30;;
12110;SDS011;6119;52.372;8.990;2023-07-20T02:28:32;2.70;;;1.60;;
12110;SDS011;6119;52.372;8.990;2023-07-20T02:31:19;1.70;;;1.60;;
12110;SDS011;6119;52.372;8.990;2023-07-20T02:34:06;1.67;;;1.57;;
12110;SDS011;6119;52.372;8.990;2023-07-20T02:36:53;3.10;;;1.60;;
12110;SDS011;6119;52.372;8.990;2023-07-20T02:39:44;1.67;;;1.53;;
12110;SDS011;6119;52.372;8.990;2023-07-20T02:42:31;2.00;;;1.80;;
12110;SDS011;6119;52.372;8.990;2023-07-20T02:45:17;2.17;;;1.90;;
12110;SDS011;6119;52.372;8.990;2023-07-20T02:48:04;6.03;;;2.00;;
12110;SDS011;6119;52.372;8.990;2023-07-20T02:50:53;2.77;;;1.70;;
12110;SDS011;6119;52.372;8.990;2023-07-20T02:53:39;3.20;;;1.90;;
12110;SDS011;6119;52.372;8.990;2023-07-20T02:56:27;2.20;;;2.00;;
12110;SDS011;6119;52.372;8.990;2023-07-20T02:59:14;1.93;;;1.83;;
12110;SDS011;6119;52.372;8.990;2023-07-20T03:02:01;1.80;;;1.70;;
12110;SDS011;6119;52.372;8.990;2023-07-20T03:04:48;2.17;;;2.00;;
12110;SDS011;6119;52.372;8.990;2023-07-20T03:07:34;3.60;;;2.63;;
12110;SDS011;6119;52.372;8.990;2023-07-20T03:10:21;2.20;;;2.07;;
12110;SDS011;6119;52.372;8.990;2023-07-20T03:13:09;2.73;;;2.47;;
12110;SDS011;6119;52.372;8.990;2023-07-20T03:15:56;3.57;;;2.60;;
12110;SDS011;6119;52.372;8.990;2023-07-20T03:18:43;4.77;;;2.27;;
12110;SDS011;6119;52.372;8.990;2023-07-20T03:21:29;3.50;;;2.60;;
12110;SDS011;6119;52.372;8.990;2023-07-20T03:24:16;2.90;;;2.60;;
12110;SDS011;6119;52.372;8.990;2023-07-20T03:27:02;2.80;;;2.50;;
12110;SDS011;6119;52.372;8.990;2023-07-20T03:29:51;2.63;;;2.37;;
12110;SDS011;6119;52.372;8.990;2023-07-20T03:32:37;3.80;;;2.73;;
12110;SDS011;6119;52.372;8.990;2023-07-20T03:35:24;3.07;;;2.80;;
12110;SDS011;6119;52.372;8.990;2023-07-20T03:38:11;3.33;;;3.03;;
12110;SDS011;6119;52.372;8.990;2023-07-20T03:40:59;3.40;;;3.10;;
12110;SDS011;6119;52.372;8.990;2023-07-20T03:43:46;4.40;;;3.20;;
12110;SDS011;6119;52.372;8.990;2023-07-20T03:46:35;3.60;;;3.30;;
12110;SDS011;6119;52.372;8.990;2023-07-20T03:49:22;5.50;;;3.60;;
12110;SDS011;6119;52.372;8.990;2023-07-20T03:52:09;5.00;;;3.93;;
12110;SDS011;6119;52.372;8.990;2023-07-20T03:54:55;4.60;;;4.20;;
12110;SDS011;6119;52.372;8.990;2023-07-20T03:57:42;4.07;;;3.53;;
12110;SDS011;6119;52.372;8.990;2023-07-20T04:00:29;4.27;;;3.80;;
12110;SDS011;6119;52.372;8.990;2023-07-20T04:03:17;6.83;;;4.27;;
12110;SDS011;6119;52.372;8.990;2023-07-20T04:06:05;4.10;;;3.70;;
12110;SDS011;6119;52.372;8.990;2023-07-20T04:08:53;4.80;;;4.40;;
12110;SDS011;6119;52.372;8.990;2023-07-20T04:11:39;5.47;;;4.47;;
12110;SDS011;6119;52.372;8.990;2023-07-20T04:14:26;5.33;;;4.23;;
12110;SDS011;6119;52.372;8.990;2023-07-20T04:17:12;4.90;;;4.40;;
12110;SDS011;6119;52.372;8.990;2023-07-20T04:20:00;5.37;;;4.30;;
12110;SDS011;6119;52.372;8.990;2023-07-20T04:22:47;4.90;;;4.23;;
12110;SDS011;6119;52.372;8.990;2023-07-20T04:25:34;6.10;;;4.40;;
12110;SDS011;6119;52.372;8.990;2023-07-20T04:28:24;5.30;;;4.80;;
12110;SDS011;6119;52.372;8.990;2023-07-20T04:31:11;5.50;;;4.40;;
12110;SDS011;6119;52.372;8.990;2023-07-20T04:33:58;5.57;;;4.50;;
12110;SDS011;6119;52.372;8.990;2023-07-20T04:36:47;5.10;;;4.13;;
12110;SDS011;6119;52.372;8.990;2023-07-20T04:39:34;5.63;;;4.07;;
12110;SDS011;6119;52.372;8.990;2023-07-20T04:42:21;6.23;;;4.43;;
12110;SDS011;6119;52.372;8.990;2023-07-20T04:45:07;5.67;;;4.70;;
12110;SDS011;6119;52.372;8.990;2023-07-20T04:47:54;6.47;;;4.43;;
12110;SDS011;6119;52.372;8.990;2023-07-20T04:50:42;5.10;;;4.50;;
12110;SDS011;6119;52.372;8.990;2023-07-20T04:53:31;7.50;;;5.20;;
12110;SDS011;6119;52.372;8.990;2023-07-20T04:56:18;6.87;;;4.77;;
12110;SDS011;6119;52.372;8.990;2023-07-20T04:59:08;4.60;;;4.20;;
12110;SDS011;6119;52.372;8.990;2023-07-20T05:01:55;5.90;;;4.13;;
12110;SDS011;6119;52.372;8.990;2023-07-20T05:04:42;7.13;;;4.30;;
12110;SDS011;6119;52.372;8.990;2023-07-20T05:07:28;4.33;;;3.90;;
12110;SDS011;6119;52.372;8.990;2023-07-20T05:10:16;5.27;;;4.30;;
12110;SDS011;6119;52.372;8.990;2023-07-20T05:13:03;5.33;;;4.00;;
12110;SDS011;6119;52.372;8.990;2023-07-20T05:15:51;4.10;;;3.70;;
12110;SDS011;6119;52.372;8.990;2023-07-20T05:18:38;4.03;;;3.63;;
12110;SDS011;6119;52.372;8.990;2023-07-20T05:21:24;4.73;;;4.23;;
12110;SDS011;6119;52.372;8.990;2023-07-20T05:24:11;4.40;;;4.00;;
12110;SDS011;6119;52.372;8.990;2023-07-20T05:26:59;4.27;;;3.87;;
12110;SDS011;6119;52.372;8.990;2023-07-20T05:29:45;4.13;;;3.73;;
12110;SDS011;6119;52.372;8.990;2023-07-20T05:32:32;4.17;;;3.77;;
12110;SDS011;6119;52.372;8.990;2023-07-20T05:35:19;4.30;;;3.90;;
12110;SDS011;6119;52.372;8.990;2023-07-20T05:38:07;4.90;;;4.23;;
12110;SDS011;6119;52.372;8.990;2023-07-20T05:40:58;4.53;;;4.13;;
12110;SDS011;6119;52.372;8.990;2023-07-20T05:43:47;4.93;;;4.40;;
12110;SDS011;6119;52.372;8.990;2023-07-20T05:46:34;5.83;;;4.73;;
12110;SDS011;6119;52.372;8.990;2023-07-20T05:49:39;5.10;;;4.60;;
12110;SDS011;6119;52.372;8.990;2023-07-20T05:52:25;6.47;;;4.43;;
12110;SDS011;6119;52.372;8.990;2023-07-20T05:55:12;5.40;;;4.90;;
12110;SDS011;6119;52.372;8.990;2023-07-20T05:57:58;8.53;;;5.10;;
12110;SDS011;6119;52.372;8.990;2023-07-20T06:00:48;5.40;;;4.57;;
12110;SDS011;6119;52.372;8.990;2023-07-20T06:03:35;5.30;;;4.80;;
12110;SDS011;6119;52.372;8.990;2023-07-20T06:06:22;5.27;;;4.77;;
12110;SDS011;6119;52.372;8.990;2023-07-20T06:09:10;4.93;;;4.43;;
12110;SDS011;6119;52.372;8.990;2023-07-20T06:11:57;7.20;;;4.60;;
12110;SDS011;6119;52.372;8.990;2023-07-20T06:14:43;5.27;;;4.77;;
12110;SDS011;6119;52.372;8.990;2023-07-20T06:17:32;8.37;;;4.30;;
12110;SDS011;6119;52.372;8.990;2023-07-20T06:20:22;5.17;;;4.33;;
12110;SDS011;6119;52.372;8.990;2023-07-20T06:23:08;7.33;;;4.13;;
12110;SDS011;6119;52.372;8.990;2023-07-20T06:25:56;4.20;;;3.80;;
12110;SDS011;6119;52.372;8.990;2023-07-20T06:28:42;6.37;;;3.77;;
12110;SDS011;6119;52.372;8.990;2023-07-20T06:31:29;4.03;;;3.13;;
12110;SDS011;6119;52.372;8.990;2023-07-20T06:34:18;3.77;;;3.20;;
12110;SDS011;6119;52.372;8.990;2023-07-20T06:37:08;4.00;;;2.90;;
12110;SDS011;6119;52.372;8.990;2023-07-20T06:39:54;3.30;;;2.80;;
12110;SDS011;6119;52.372;8.990;2023-07-20T06:42:44;4.73;;;2.73;;
12110;SDS011;6119;52.372;8.990;2023-07-20T06:45:34;5.30;;;2.93;;
12110;SDS011;6119;52.372;8.990;2023-07-20T06:48:21;6.43;;;2.40;;
12110;SDS011;6119;52.372;8.990;2023-07-20T06:51:09;2.40;;;2.20;;
12110;SDS011;6119;52.372;8.990;2023-07-20T06:53:56;3.40;;;2.40;;
12110;SDS011;6119;52.372;8.990;2023-07-20T06:56:42;2.87;;;2.00;;
12110;SDS011;6119;52.372;8.990;2023-07-20T06:59:31;4.13;;;2.10;;
12110;SDS011;6119;52.372;8.990;2023-07-20T07:02:18;2.07;;;1.90;;
12110;SDS011;6119;52.372;8.990;2023-07-20T07:05:05;3.70;;;2.50;;
12110;SDS011;6119;52.372;8.990;2023-07-20T07:07:57;3.97;;;2.00;;
12110;SDS011;6119;52.372;8.990;2023-07-20T07:10:44;2.07;;;1.87;;
12110;SDS011;6119;52.372;8.990;2023-07-20T07:13:30;3.53;;;2.50;;
12110;SDS011;6119;52.372;8.990;2023-07-20T07:16:17;3.57;;;1.90;;
12110;SDS011;6119;52.372;8.990;2023-07-20T07:19:05;2.00;;;1.80;;
12110;SDS011;6119;52.372;8.990;2023-07-20T07:21:53;2.37;;;1.50;;
12110;SDS011;6119;52.372;8.990;2023-07-20T07:24:46;5.23;;;1.30;;
12110;SDS011;6119;52.372;8.990;2023-07-20T07:27:33;2.40;;;1.53;;
12110;SDS011;6119;52.372;8.990;2023-07-20T07:30:19;1.80;;;1.43;;
12110;SDS011;6119;52.372;8.990;2023-07-20T07:33:06;2.77;;;1.60;;
12110;SDS011;6119;52.372;8.990;2023-07-20T07:35:53;1.90;;;1.33;;
12110;SDS011;6119;52.372;8.990;2023-07-20T07:38:39;4.73;;;1.60;;
12110;SDS011;6119;52.372;8.990;2023-07-20T07:41:31;2.80;;;1.40;;
12110;SDS011;6119;52.372;8.990;2023-07-20T07:44:17;1.40;;;1.30;;
12110;SDS011;6119;52.372;8.990;2023-07-20T07:47:06;1.60;;;1.50;;
12110;SDS011;6119;52.372;8.990;2023-07-20T07:49:53;1.37;;;1.27;;
12110;SDS011;6119;52.372;8.990;2023-07-20T07:52:40;4.70;;;1.53;;
12110;SDS011;6119;52.372;8.990;2023-07-20T07:55:26;3.07;;;1.43;;
12110;SDS011;6119;52.372;8.990;2023-07-20T07:58:14;1.40;;;1.30;;
12110;SDS011;6119;52.372;8.990;2023-07-20T08:01:03;2.83;;;1.40;;
12110;SDS011;6119;52.372;8.990;2023-07-20T08:03:50;1.77;;;1.20;;
12110;SDS011;6119;52.372;8.990;2023-07-20T08:06:37;1.30;;;1.10;;
12110;SDS011;6119;52.372;8.990;2023-07-20T08:09:24;1.80;;;1.67;;
12110;SDS011;6119;52.372;8.990;2023-07-20T08:12:10;4.10;;;1.50;;
12110;SDS011;6119;52.372;8.990;2023-07-20T08:14:59;1.10;;;1.00;;
12110;SDS011;6119;52.372;8.990;2023-07-20T08:17:46;1.53;;;1.10;;
12110;SDS011;6119;52.372;8.990;2023-07-20T08:20:37;1.03;;;1.03;;
12110;SDS011;6119;52.372;8.990;2023-07-20T08:23:23;2.23;;;1.20;;
12110;SDS011;6119;52.372;8.990;2023-07-20T08:26:11;1.20;;;0.90;;
12110;SDS011;6119;52.372;8.990;2023-07-20T08:28:58;2.53;;;1.20;;
12110;SDS011;6119;52.372;8.990;2023-07-20T08:31:46;0.90;;;0.90;;
12110;SDS011;6119;52.372;8.990;2023-07-20T08:34:33;2.57;;;0.90;;
12110;SDS011;6119;52.372;8.990;2023-07-20T08:37:20;0.80;;;0.80;;
12110;SDS011;6119;52.372;8.990;2023-07-20T08:40:08;2.83;;;0.90;;
12110;SDS011;6119;52.372;8.990;2023-07-20T08:42:56;1.73;;;1.20;;
12110;SDS011;6119;52.372;8.990;2023-07-20T08:45:45;1.67;;;1.20;;
12110;SDS011;6119;52.372;8.990;2023-07-20T08:48:36;2.27;;;1.70;;
12110;SDS011;6119;52.372;8.990;2023-07-20T08:51:23;2.37;;;0.90;;
12110;SDS011;6119;52.372;8.990;2023-07-20T08:54:11;1.37;;;1.00;;
12110;SDS011;6119;52.372;8.990;2023-07-20T08:57:00;0.87;;;0.83;;
12110;SDS011;6119;52.372;8.990;2023-07-20T08:59:48;0.90;;;0.90;;
12110;SDS011;6119;52.372;8.990;2023-07-20T09:02:38;0.90;;;0.90;;
12110;SDS011;6119;52.372;8.990;2023-07-20T09:05:27;2.53;;;1.00;;
12110;SDS011;6119;52.372;8.990;2023-07-20T09:08:18;1.80;;;1.20;;
12110;SDS011;6119;52.372;8.990;2023-07-20T09:11:04;0.90;;;0.90;;
12110;SDS011;6119;52.372;8.990;2023-07-20T09:14:01;5.90;;;0.90;;
12110;SDS011;6119;52.372;8.990;2023-07-20T09:16:49;1.07;;;0.90;;
12110;SDS011;6119;52.372;8.990;2023-07-20T09:19:38;1.27;;;0.83;;
12110;SDS011;6119;52.372;8.990;2023-07-20T09:22:30;0.80;;;0.80;;
12110;SDS011;6119;52.372;8.990;2023-07-20T09:25:17;2.50;;;0.90;;
12110;SDS011;6119;52.372;8.990;2023-07-20T09:28:06;1.80;;;1.10;;
12110;SDS011;6119;52.372;8.990;2023-07-20T09:30:54;1.33;;;1.07;;
12110;SDS011;6119;52.372;8.990;2023-07-20T09:33:42;0.90;;;0.90;;
12110;SDS011;6119;52.372;8.990;2023-07-20T09:36:32;7.63;;;1.20;;
12110;SDS011;6119;52.372;8.990;2023-07-20T09:39:24;1.10;;;1.00;;
12110;SDS011;6119;52.372;8.990;2023-07-20T09:42:14;1.17;;;1.07;;
12110;SDS011;6119;52.372;8.990;2023-07-20T09:45:06;0.80;;;0.80;;
12110;SDS011;6119;52.372;8.990;2023-07-20T09:47:53;1.13;;;0.80;;
12110;SDS011;6119;52.372;8.990;2023-07-20T09:50:53;0.90;;;0.90;;
12110;SDS011;6119;52.372;8.990;2023-07-20T09:53:39;1.07;;;1.00;;
12110;SDS011;6119;52.372;8.990;2023-07-20T09:56:27;1.40;;;0.80;;
12110;SDS011;6119;52.372;8.990;2023-07-20T09:59:16;1.77;;;0.83;;
12110;SDS011;6119;52.372;8.990;2023-07-20T10:02:05;0.77;;;0.77;;
12110;SDS011;6119;52.372;8.990;2023-07-20T10:04:57;0.70;;;0.70;;
12110;SDS011;6119;52.372;8.990;2023-07-20T10:07:49;1.90;;;0.77;;
12110;SDS011;6119;52.372;8.990;2023-07-20T10:10:57;1.13;;;0.80;;
12110;SDS011;6119;52.372;8.990;2023-07-20T10:13:47;2.00;;;0.90;;
12110;SDS011;6119;52.372;8.990;2023-07-20T10:16:42;0.67;;;0.67;;
12110;SDS011;6119;52.372;8.990;2023-07-20T10:19:34;1.57;;;1.03;;
12110;SDS011;6119;52.372;8.990;2023-07-20T10:22:36;0.93;;;0.70;;
12110;SDS011;6119;52.372;8.990;2023-07-20T10:25:26;1.00;;;1.00;;
12110;SDS011;6119;52.372;8.990;2023-07-20T10:28:14;2.63;;;0.90;;
12110;SDS011;6119;52.372;8.990;2023-07-20T10:31:02;3.57;;;0.90;;
12110;SDS011;6119;52.372;8.990;2023-07-20T10:33:51;1.07;;;0.87;;
12110;SDS011;6119;52.372;8.990;2023-07-20T10:36:43;0.90;;;0.90;;
12110;SDS011;6119;52.372;8.990;2023-07-20T10:39:31;0.80;;;0.60;;
12110;SDS011;6119;52.372;8.990;2023-07-20T10:42:19;0.63;;;0.63;;
12110;SDS011;6119;52.372;8.990;2023-07-20T10:45:07;1.27;;;1.10;;
12110;SDS011;6119;52.372;8.990;2023-07-20T10:47:55;3.40;;;1.03;;
12110;SDS011;6119;52.372;8.990;2023-07-20T10:50:42;1.50;;;1.00;;
12110;SDS011;6119;52.372;8.990;2023-07-20T10:53:29;0.90;;;0.90;;
12110;SDS011;6119;52.372;8.990;2023-07-20T10:56:19;1.87;;;0.83;;
12110;SDS011;6119;52.372;8.990;2023-07-20T10:59:16;0.80;;;0.80;;
12110;SDS011;6119;52.372;8.990;2023-07-20T11:02:05;2.07;;;0.80;;
12110;SDS011;6119;52.372;8.990;2023-07-20T11:04:55;0.80;;;0.80;;
12110;SDS011;6119;52.372;8.990;2023-07-20T11:07:43;1.00;;;0.80;;
12110;SDS011;6119;52.372;8.990;2023-07-20T11:10:33;0.80;;;0.60;;
12110;SDS011;6119;52.372;8.990;2023-07-20T11:13:20;0.90;;;0.70;;
12110;SDS011;6119;52.372;8.990;2023-07-20T11:16:09;0.67;;;0.67;;
12110;SDS011;6119;52.372;8.990;2023-07-20T11:18:56;1.03;;;0.70;;
12110;SDS011;6119;52.372;8.990;2023-07-20T11:21:45;0.83;;;0.80;;
12110;SDS011;6119;52.372;8.990;2023-07-20T11:24:47;1.30;;;0.80;;
12110;SDS011;6119;52.372;8.990;2023-07-20T11:27:37;1.77;;;0.80;;
12110;SDS011;6119;52.372;8.990;2023-07-20T11:30:32;2.53;;;0.83;;
12110;SDS011;6119;52.372;8.990;2023-07-20T11:33:20;1.43;;;0.70;;
12110;SDS011;6119;52.372;8.990;2023-07-20T11:36:08;0.70;;;0.70;;
12110;SDS011;6119;52.372;8.990;2023-07-20T11:38:59;1.73;;;0.80;;
12110;SDS011;6119;52.372;8.990;2023-07-20T11:41:48;2.50;;;1.00;;
12110;SDS011;6119;52.372;8.990;2023-07-20T11:44:35;0.97;;;0.77;;
12110;SDS011;6119;52.372;8.990;2023-07-20T11:47:22;1.33;;;0.80;;
12110;SDS011;6119;52.372;8.990;2023-07-20T11:50:15;1.90;;;0.90;;
12110;SDS011;6119;52.372;8.990;2023-07-20T11:53:01;1.40;;;0.73;;
12110;SDS011;6119;52.372;8.990;2023-07-20T11:55:49;1.73;;;0.90;;
12110;SDS011;6119;52.372;8.990;2023-07-20T11:58:41;1.10;;;0.90;;
12110;SDS011;6119;52.372;8.990;2023-07-20T12:01:29;0.93;;;0.70;;
12110;SDS011;6119;52.372;8.990;2023-07-20T12:04:18;3.50;;;0.80;;
12110;SDS011;6119;52.372;8.990;2023-07-20T12:07:07;0.80;;;0.80;;
12110;SDS011;6119;52.372;8.990;2023-07-20T12:10:03;0.83;;;0.67;;
12110;SDS011;6119;52.372;8.990;2023-07-20T12:12:52;2.93;;;0.93;;
12110;SDS011;6119;52.372;8.990;2023-07-20T12:15:39;0.80;;;0.80;;
12110;SDS011;6119;52.372;8.990;2023-07-20T12:18:34;1.00;;;0.87;;
12110;SDS011;6119;52.372;8.990;2023-07-20T12:21:21;2.07;;;0.83;;
12110;SDS011;6119;52.372;8.990;2023-07-20T12:24:08;1.37;;;1.00;;
12110;SDS011;6119;52.372;8.990;2023-07-20T12:26:57;0.70;;;0.70;;
12110;SDS011;6119;52.372;8.990;2023-07-20T12:29:46;1.30;;;1.00;;
12110;SDS011;6119;52.372;8.990;2023-07-20T12:32:33;0.83;;;0.83;;
12110;SDS011;6119;52.372;8.990;2023-07-20T12:35:20;0.97;;;0.87;;
12110;SDS011;6119;52.372;8.990;2023-07-20T12:38:07;0.93;;;0.70;;
12110;SDS011;6119;52.372;8.990;2023-07-20T12:40:54;2.40;;;0.90;;
12110;SDS011;6119;52.372;8.990;2023-07-20T12:43:41;1.37;;;0.70;;
12110;SDS011;6119;52.372;8.990;2023-07-20T12:46:29;0.90;;;0.80;;
12110;SDS011;6119;52.372;8.990;2023-07-20T12:49:20;0.77;;;0.77;;
12110;SDS011;6119;52.372;8.990;2023-07-20T12:52:07;0.73;;;0.73;;
12110;SDS011;6119;52.372;8.990;2023-07-20T12:54:53;1.27;;;0.97;;
12110;SDS011;6119;52.372;8.990;2023-07-20T12:57:40;0.77;;;0.77;;
12110;SDS011;6119;52.372;8.990;2023-07-20T13:00:27;0.70;;;0.70;;
12110;SDS011;6119;52.372;8.990;2023-07-20T13:03:15;3.17;;;0.70;;
12110;SDS011;6119;52.372;8.990;2023-07-20T13:06:06;0.77;;;0.70;;
12110;SDS011;6119;52.372;8.990;2023-07-20T13:08:57;1.90;;;0.70;;
12110;SDS011;6119;52.372;8.990;2023-07-20T13:11:43;0.80;;;0.80;;
12110;SDS011;6119;52.372;8.990;2023-07-20T13:14:30;2.00;;;0.80;;
12110;SDS011;6119;52.372;8.990;2023-07-20T13:17:17;0.97;;;0.80;;
12110;SDS011;6119;52.372;8.990;2023-07-20T13:20:07;0.70;;;0.70;;
12110;SDS011;6119;52.372;8.990;2023-07-20T13:22:55;1.53;;;0.73;;
12110;SDS011;6119;52.372;8.990;2023-07-20T13:25:43;1.10;;;0.73;;
12110;SDS011;6119;52.372;8.990;2023-07-20T13:28:29;0.90;;;0.77;;
12110;SDS011;6119;52.372;8.990;2023-07-20T13:31:16;1.53;;;0.90;;
12110;SDS011;6119;52.372;8.990;2023-07-20T13:34:03;1.63;;;0.70;;
12110;SDS011;6119;52.372;8.990;2023-07-20T13:36:53;0.70;;;0.70;;
12110;SDS011;6119;52.372;8.990;2023-07-20T13:39:40;2.30;;;0.83;;
12110;SDS011;6119;52.372;8.990;2023-07-20T13:42:28;0.70;;;0.70;;
12110;SDS011;6119;52.372;8.990;2023-07-20T13:45:14;2.10;;;0.80;;
12110;SDS011;6119;52.372;8.990;2023-07-20T13:48:01;0.80;;;0.80;;
12110;SDS011;6119;52.372;8.990;2023-07-20T13:50:51;1.53;;;0.70;;
12110;SDS011;6119;52.372;8.990;2023-07-20T13:53:42;0.97;;;0.77;;
12110;SDS011;6119;52.372;8.990;2023-07-20T13:56:34;2.80;;;1.00;;
12110;SDS011;6119;52.372;8.990;2023-07-20T13:59:21;3.13;;;0.93;;
12110;SDS011;6119;52.372;8.990;2023-07-20T14:02:09;0.90;;;0.90;;
12110;SDS011;6119;52.372;8.990;2023-07-20T14:04:59;1.93;;;1.03;;
12110;SDS011;6119;52.372;8.990;2023-07-20T14:07:48;1.43;;;0.73;;
12110;SDS011;6119;52.372;8.990;2023-07-20T14:10:37;1.00;;;1.00;;
12110;SDS011;6119;52.372;8.990;2023-07-20T14:13:27;1.07;;;0.80;;
12110;SDS011;6119;52.372;8.990;2023-07-20T14:16:30;0.90;;;0.90;;
12110;SDS011;6119;52.372;8.990;2023-07-20T14:19:18;0.80;;;0.80;;
12110;SDS011;6119;52.372;8.990;2023-07-20T14:22:05;3.80;;;1.20;;
12110;SDS011;6119;52.372;8.990;2023-07-20T14:24:52;4.47;;;0.90;;
12110;SDS011;6119;52.372;8.990;2023-07-20T14:27:40;1.63;;;0.97;;
12110;SDS011;6119;52.372;8.990;2023-07-20T14:30:29;2.03;;;0.90;;
12110;SDS011;6119;52.372;8.990;2023-07-20T14:33:16;1.27;;;0.90;;
12110;SDS011;6119;52.372;8.990;2023-07-20T14:36:02;1.27;;;0.90;;
12110;SDS011;6119;52.372;8.990;2023-07-20T14:38:49;2.10;;;1.00;;
12110;SDS011;6119;52.372;8.990;2023-07-20T14:41:36;1.10;;;1.00;;
12110;SDS011;6119;52.372;8.990;2023-07-20T14:44:24;1.87;;;0.90;;
12110;SDS011;6119;52.372;8.990;2023-07-20T14:47:11;0.93;;;0.80;;
12110;SDS011;6119;52.372;8.990;2023-07-20T14:49:59;0.80;;;0.80;;
12110;SDS011;6119;52.372;8.990;2023-07-20T14:52:47;1.83;;;0.90;;
12110;SDS011;6119;52.372;8.990;2023-07-20T14:55:33;0.70;;;0.70;;
12110;SDS011;6119;52.372;8.990;2023-07-20T14:58:20;1.10;;;1.00;;
12110;SDS011;6119;52.372;8.990;2023-07-20T15:01:08;3.27;;;1.20;;
12110;SDS011;6119;52.372;8.990;2023-07-20T15:03:55;1.90;;;1.10;;
12110;SDS011;6119;52.372;8.990;2023-07-20T15:06:43;1.50;;;1.33;;
12110;SDS011;6119;52.372;8.990;2023-07-20T15:09:30;1.47;;;1.10;;
12110;SDS011;6119;52.372;8.990;2023-07-20T15:12:19;1.13;;;1.00;;
12110;SDS011;6119;52.372;8.990;2023-07-20T15:15:06;1.73;;;1.20;;
12110;SDS011;6119;52.372;8.990;2023-07-20T15:17:55;2.97;;;1.17;;
12110;SDS011;6119;52.372;8.990;2023-07-20T15:20:42;2.07;;;1.50;;
12110;SDS011;6119;52.372;8.990;2023-07-20T15:23:29;1.33;;;1.20;;
12110;SDS011;6119;52.372;8.990;2023-07-20T15:26:16;2.13;;;0.97;;
12110;SDS011;6119;52.372;8.990;2023-07-20T15:29:02;4.70;;;1.60;;
12110;SDS011;6119;52.372;8.990;2023-07-20T15:31:49;1.73;;;1.33;;
12110;SDS011;6119;52.372;8.990;2023-07-20T15:34:40;2.53;;;1.30;;
12110;SDS011;6119;52.372;8.990;2023-07-20T15:37:27;2.77;;;1.30;;
12110;SDS011;6119;52.372;8.990;2023-07-20T15:40:13;1.53;;;1.30;;
12110;SDS011;6119;52.372;8.990;2023-07-20T15:43:00;3.37;;;1.37;;
12110;SDS011;6119;52.372;8.990;2023-07-20T15:49:37;1.27;;;1.17;;
12110;SDS011;6119;52.372;8.990;2023-07-20T15:52:25;2.87;;;1.40;;
12110;SDS011;6119;52.372;8.990;2023-07-20T15:55:14;4.40;;;1.50;;
12110;SDS011;6119;52.372;8.990;2023-07-20T15:58:01;1.83;;;1.30;;
12110;SDS011;6119;52.372;8.990;2023-07-20T16:00:52;1.40;;;1.30;;
12110;SDS011;6119;52.372;8.990;2023-07-20T16:03:39;2.87;;;1.53;;
12110;SDS011;6119;52.372;8.990;2023-07-20T16:06:26;2.33;;;1.30;;
12110;SDS011;6119;52.372;8.990;2023-07-20T16:09:14;1.70;;;1.30;;
12110;SDS011;6119;52.372;8.990;2023-07-20T16:12:02;1.37;;;1.27;;
12110;SDS011;6119;52.372;8.990;2023-07-20T16:14:49;2.97;;;1.30;;
12110;SDS011;6119;52.372;8.990;2023-07-20T16:17:39;2.57;;;1.30;;
12110;SDS011;6119;52.372;8.990;2023-07-20T16:20:25;1.40;;;1.30;;
12110;SDS011;6119;52.372;8.990;2023-07-20T16:23:12;4.50;;;1.57;;
12110;SDS011;6119;52.372;8.990;2023-07-20T16:26:00;3.03;;;1.30;;
12110;SDS011;6119;52.372;8.990;2023-07-20T16:28:47;2.50;;;1.60;;
12110;SDS011;6119;52.372;8.990;2023-07-20T16:31:34;4.00;;;2.37;;
12110;SDS011;6119;52.372;8.990;2023-07-20T16:34:20;3.60;;;1.80;;
12110;SDS011;6119;52.372;8.990;2023-07-20T16:37:08;1.70;;;1.60;;
12110;SDS011;6119;52.372;8.990;2023-07-20T16:39:58;3.83;;;1.63;;
12110;SDS011;6119;52.372;8.990;2023-07-20T16:42:48;1.90;;;1.40;;
12110;SDS011;6119;52.372;8.990;2023-07-20T16:45:37;2.90;;;1.83;;
12110;SDS011;6119;52.372;8.990;2023-07-20T16:48:24;2.87;;;2.10;;
12110;SDS011;6119;52.372;8.990;2023-07-20T16:51:11;2.93;;;1.80;;
12110;SDS011;6119;52.372;8.990;2023-07-20T16:53:58;3.67;;;1.57;;
12110;SDS011;6119;52.372;8.990;2023-07-20T16:56:44;2.97;;;1.50;;
12110;SDS011;6119;52.372;8.990;2023-07-20T16:59:32;3.27;;;1.40;;
12110;SDS011;6119;52.372;8.990;2023-07-20T17:02:19;1.93;;;1.50;;
12110;SDS011;6119;52.372;8.990;2023-07-20T17:05:07;1.60;;;1.40;;
12110;SDS011;6119;52.372;8.990;2023-07-20T17:07:55;1.23;;;1.13;;
12110;SDS011;6119;52.372;8.990;2023-07-20T17:10:41;2.33;;;1.53;;
12110;SDS011;6119;52.372;8.990;2023-07-20T17:13:28;2.83;;;1.50;;
12110;SDS011;6119;52.372;8.990;2023-07-20T17:16:19;2.87;;;1.27;;